Time;durP1;ratioP1;P1;durP2;ratioP2;P2;SDS_P1;SDS_P2;PMS_P1;PMS_P2;Temp;Humidity;BMP_temperature;BMP_pressure;BME280_temperature;BME280_humidity;BME280_pressure;Samples;Min_cycle;Max_cycle;Signal;HPM_P1;HPM_P2
2021/12/09 00:01:13;;;;;;;73.75;30.05;;;;;;;1.19;100.00;96339.09;4996392;28;20058;-81
2021/12/09 00:03:41;;;;;;;69.70;28.75;;;;;;;1.21;100.00;96347.63;5013195;28;20595;-81
2021/12/09 00:06:11;;;;;;;72.53;29.17;;;;;;;1.20;100.00;96341.47;5013705;28;20101;-81
2021/12/09 00:08:38;;;;;;;72.43;29.90;;;;;;;1.27;100.00;96347.25;4996693;28;20053;-82
2021/12/09 00:11:07;;;;;;;73.53;29.55;;;;;;;1.18;100.00;96338.31;4997858;28;20537;-80
2021/12/09 00:13:36;;;;;;;71.28;29.17;;;;;;;1.35;100.00;96339.69;4996858;28;20049;-80
2021/12/09 00:16:03;;;;;;;75.40;31.10;;;;;;;1.35;100.00;96329.00;5014341;28;20135;-81
2021/12/09 00:18:30;;;;;;;71.60;30.67;;;;;;;1.40;100.00;96336.94;5012697;28;20054;-80
2021/12/09 00:20:57;;;;;;;76.70;30.45;;;;;;;1.26;100.00;96344.88;5011831;28;20049;-80
2021/12/09 00:23:24;;;;;;;72.55;29.45;;;;;;;1.27;100.00;96357.09;5012496;28;20509;-82
2021/12/09 00:25:54;;;;;;;69.47;28.98;;;;;;;1.40;100.00;96359.06;5013160;28;20049;-79
2021/12/09 00:28:20;;;;;;;74.80;30.58;;;;;;;1.44;100.00;96351.28;5013426;28;20490;-80
2021/12/09 00:30:47;;;;;;;71.65;29.27;;;;;;;1.49;100.00;96348.56;5013752;28;20100;-81
2021/12/09 00:33:16;;;;;;;75.80;30.58;;;;;;;1.43;100.00;96344.38;5013920;28;20100;-81
2021/12/09 00:36:05;;;;;;;77.00;30.75;;;;;;;1.31;100.00;96342.16;5017040;28;20539;-82
2021/12/09 00:38:35;;;;;;;69.07;28.80;;;;;;;1.37;100.00;96330.31;5016945;28;20054;-80
2021/12/09 00:41:06;;;;;;;78.60;30.80;;;;;;;1.27;100.00;96328.59;5014124;28;20510;-81
2021/12/09 00:43:33;;;;;;;71.85;30.20;;;;;;;1.29;100.00;96323.00;5016703;28;20050;-80
2021/12/09 00:46:00;;;;;;;71.28;30.75;;;;;;;1.45;100.00;96328.88;5015781;28;20053;-82
2021/12/09 00:48:27;;;;;;;73.47;30.83;;;;;;;1.26;100.00;96342.22;5016883;28;20148;-82
2021/12/09 00:50:55;;;;;;;71.03;29.67;;;;;;;1.36;100.00;96335.94;5016376;28;20104;-82
2021/12/09 00:53:22;;;;;;;74.20;30.27;;;;;;;1.27;100.00;96347.25;5014226;28;20046;-82
2021/12/09 00:55:48;;;;;;;72.03;31.80;;;;;;;1.23;100.00;96351.56;5014752;28;20131;-82
2021/12/09 00:58:15;;;;;;;75.15;30.25;;;;;;;1.32;100.00;96358.94;5016407;28;20613;-82
2021/12/09 01:00:42;;;;;;;79.50;31.17;;;;;;;1.31;100.00;96346.69;5015925;28;20108;-82
2021/12/09 01:03:11;;;;;;;75.57;30.67;;;;;;;1.30;100.00;96355.75;5015438;28;20042;-82
2021/12/09 01:05:38;;;;;;;73.95;30.25;;;;;;;1.16;100.00;96363.66;5015456;28;20120;-83
2021/12/09 01:08:07;;;;;;;74.82;31.58;;;;;;;1.39;100.00;96367.38;5016476;28;20056;-82
2021/12/09 01:10:34;;;;;;;75.82;30.10;;;;;;;1.39;100.00;96365.50;5015245;28;20053;-82
2021/12/09 01:13:01;;;;;;;70.20;29.42;;;;;;;1.46;100.00;96357.13;5013097;28;20096;-83
2021/12/09 01:15:27;;;;;;;73.35;30.05;;;;;;;1.38;100.00;96347.91;5017729;28;20502;-81
2021/12/09 01:17:54;;;;;;;79.70;31.70;;;;;;;1.47;100.00;96361.38;5023463;28;20469;-81
2021/12/09 01:20:26;;;;;;;76.43;31.30;;;;;;;1.53;100.00;96369.00;5017069;28;20054;-78
2021/12/09 01:22:55;;;;;;;73.90;30.63;;;;;;;1.54;100.00;96375.94;4999275;28;20057;-80
2021/12/09 01:25:25;;;;;;;78.55;31.30;;;;;;;1.48;100.00;96379.75;5014897;28;20054;-80
2021/12/09 01:27:54;;;;;;;75.93;30.83;;;;;;;1.45;100.00;96374.19;4997710;28;20128;-80
2021/12/09 01:30:23;;;;;;;77.68;30.00;;;;;;;1.78;100.00;96383.88;5013881;28;20629;-79
2021/12/09 01:32:53;;;;;;;75.43;31.27;;;;;;;1.55;100.00;96395.41;5025252;28;20050;-81
2021/12/09 01:35:27;;;;;;;81.68;31.40;;;;;;;1.41;100.00;96381.19;5000267;28;20375;-80
2021/12/09 01:38:01;;;;;;;73.45;30.58;;;;;;;1.58;100.00;96405.47;5017314;28;20057;-80
2021/12/09 01:40:29;;;;;;;76.30;30.67;;;;;;;1.47;100.00;96401.38;4998859;28;20058;-81
2021/12/09 01:42:58;;;;;;;73.70;29.45;;;;;;;1.50;100.00;96393.59;5014731;28;20073;-81
2021/12/09 01:45:27;;;;;;;68.35;29.52;;;;;;;1.47;100.00;96380.06;5017189;28;20053;-81
2021/12/09 01:47:53;;;;;;;75.72;29.88;;;;;;;1.49;100.00;96378.69;5002576;28;20056;-82
2021/12/09 01:50:21;;;;;;;75.55;30.80;;;;;;;1.41;100.00;96368.66;5016212;28;20391;-80
2021/12/09 01:52:48;;;;;;;73.22;29.80;;;;;;;1.38;100.00;96371.91;5015655;28;20046;-81
2021/12/09 01:55:16;;;;;;;76.13;31.13;;;;;;;1.42;100.00;96361.47;4998832;28;20073;-81
2021/12/09 01:57:47;;;;;;;69.72;29.63;;;;;;;1.49;100.00;96364.56;5013594;28;20054;-80
2021/12/09 02:02:46;;;;;;;68.78;30.10;;;;;;;1.44;100.00;96375.28;4937249;29;20046;-80
2021/12/09 02:05:26;;;;;;;73.60;31.23;;;;;;;1.53;100.00;96373.56;4956096;28;20059;-81
2021/12/09 02:07:53;;;;;;;76.30;32.45;;;;;;;1.54;100.00;96380.47;4953735;29;20054;-81
2021/12/09 02:10:20;;;;;;;74.82;30.90;;;;;;;1.48;100.00;96381.63;4969792;28;20110;-79
2021/12/09 02:12:50;;;;;;;75.63;31.45;;;;;;;1.51;100.00;96373.84;4956156;29;20541;-79
2021/12/09 02:15:20;;;;;;;74.25;29.95;;;;;;;1.52;100.00;96369.31;4953865;29;20051;-81
2021/12/09 02:17:48;;;;;;;75.13;31.88;;;;;;;1.48;100.00;96378.97;4953795;28;20047;-81
2021/12/09 02:20:16;;;;;;;75.53;30.25;;;;;;;1.40;100.00;96364.41;4954402;29;20055;-80
2021/12/09 02:22:46;;;;;;;75.40;31.63;;;;;;;1.41;100.00;96358.00;4955234;28;20055;-80
2021/12/09 02:25:18;;;;;;;73.55;30.70;;;;;;;1.30;100.00;96361.88;4955153;29;20051;-80
2021/12/09 02:27:45;;;;;;;87.90;33.08;;;;;;;1.43;100.00;96353.16;4955866;28;20083;-81
2021/12/09 02:30:13;;;;;;;77.20;33.15;;;;;;;1.50;100.00;96369.59;4955112;28;20455;-81
2021/12/09 02:32:40;;;;;;;81.88;33.58;;;;;;;1.16;100.00;96356.44;4951166;29;20081;-80
2021/12/09 02:35:07;;;;;;;77.88;32.88;;;;;;;1.01;100.00;96361.97;4954774;29;20058;-80
2021/12/09 02:37:35;;;;;;;83.03;33.50;;;;;;;1.26;100.00;96361.63;4956990;29;20051;-81
2021/12/09 02:40:04;;;;;;;80.07;31.83;;;;;;;1.37;100.00;96354.31;4955940;29;20487;-80
2021/12/09 02:42:32;;;;;;;78.30;32.13;;;;;;;1.38;100.00;96360.44;4954326;29;20055;-80
2021/12/09 02:44:58;;;;;;;81.70;31.70;;;;;;;1.44;100.00;96365.44;4955661;28;20051;-81
2021/12/09 02:47:26;;;;;;;77.03;32.55;;;;;;;1.44;100.00;96346.75;4951059;29;20051;-79
2021/12/09 02:49:52;;;;;;;76.72;32.47;;;;;;;1.54;100.00;96361.81;4954390;28;20055;-81
2021/12/09 02:52:19;;;;;;;78.03;32.20;;;;;;;1.50;100.00;96382.91;4955542;28;20122;-80
2021/12/09 02:54:46;;;;;;;81.68;32.90;;;;;;;1.38;100.00;96392.44;4954922;29;20474;-80
2021/12/09 02:57:13;;;;;;;83.07;32.50;;;;;;;1.20;100.00;96378.00;4953597;28;20520;-79
2021/12/09 02:59:39;;;;;;;79.95;32.45;;;;;;;1.14;100.00;96392.44;4953791;29;20059;-79
2021/12/09 03:02:09;;;;;;;86.47;33.50;;;;;;;1.22;100.00;96376.63;4966378;28;20492;-81
2021/12/09 03:04:51;;;;;;;87.47;33.83;;;;;;;1.32;100.00;96388.25;4974437;28;20074;-81
2021/12/09 03:07:24;;;;;;;92.50;34.90;;;;;;;1.33;100.00;96392.50;4973219;28;20190;-80
2021/12/09 03:09:55;;;;;;;84.50;34.65;;;;;;;1.39;100.00;96391.34;4974325;28;20515;-80
2021/12/09 03:12:26;;;;;;;86.82;34.22;;;;;;;1.44;100.00;96399.28;4980681;28;20059;-80
2021/12/09 03:14:52;;;;;;;86.72;35.10;;;;;;;1.41;100.00;96394.53;4973847;28;20069;-81
2021/12/09 03:17:20;;;;;;;82.20;33.83;;;;;;;1.39;100.00;96410.03;4972592;28;20435;-80
2021/12/09 03:19:47;;;;;;;95.10;36.65;;;;;;;1.23;100.00;96417.41;4980435;28;20057;-81
2021/12/09 03:22:14;;;;;;;95.45;35.45;;;;;;;1.13;100.00;96423.66;4991822;28;20083;-81
2021/12/09 03:24:44;;;;;;;89.00;35.45;;;;;;;1.11;100.00;96430.34;4974713;28;20043;-82
2021/12/09 03:27:10;;;;;;;91.57;36.20;;;;;;;1.20;100.00;96408.13;4975478;28;20593;-81
2021/12/09 03:29:38;;;;;;;93.82;36.63;;;;;;;1.16;100.00;96412.41;4975859;28;20058;-81
2021/12/09 03:32:09;;;;;;;87.40;36.00;;;;;;;1.05;100.00;96410.97;4973259;28;20063;-80
2021/12/09 03:34:40;;;;;;;97.82;37.45;;;;;;;1.05;100.00;96412.81;4973729;28;20111;-81
2021/12/09 03:37:10;;;;;;;90.78;35.83;;;;;;;1.05;100.00;96407.50;4974943;28;20093;-80
2021/12/09 03:39:39;;;;;;;89.25;35.50;;;;;;;1.14;100.00;96397.78;4975087;28;20054;-81
2021/12/09 03:42:13;;;;;;;99.70;37.33;;;;;;;1.11;100.00;96401.81;4974640;28;20054;-80
2021/12/09 03:44:41;;;;;;;94.55;35.10;;;;;;;1.22;100.00;96400.63;4974638;28;20102;-81
2021/12/09 03:47:11;;;;;;;94.78;37.33;;;;;;;1.15;100.00;96405.50;4972189;28;20125;-81
2021/12/09 03:49:44;;;;;;;96.00;36.50;;;;;;;1.08;100.00;96393.59;4973945;28;20578;-80
2021/12/09 03:52:12;;;;;;;94.13;36.85;;;;;;;1.07;100.00;96390.16;4973960;28;20047;-80
2021/12/09 03:54:39;;;;;;;98.20;37.22;;;;;;;1.18;100.00;96398.81;4974084;28;20055;-80
2021/12/09 03:57:07;;;;;;;90.78;36.85;;;;;;;1.18;100.00;96396.16;4989468;28;20062;-80
2021/12/09 03:59:34;;;;;;;95.35;37.45;;;;;;;1.24;100.00;96387.00;4973709;28;20051;-81
2021/12/09 04:02:01;;;;;;;96.82;36.70;;;;;;;1.34;100.00;96386.09;4974035;28;20085;-80
2021/12/09 04:04:28;;;;;;;92.15;36.05;;;;;;;1.35;100.00;96385.00;4974400;28;20042;-80
2021/12/09 04:06:55;;;;;;;102.78;36.45;;;;;;;1.39;100.00;96389.50;4975153;28;20050;-81
2021/12/09 04:09:22;;;;;;;89.20;34.55;;;;;;;1.53;100.00;96406.34;4976100;28;20105;-80
2021/12/09 04:11:52;;;;;;;98.75;38.03;;;;;;;1.49;100.00;96393.88;4976768;28;20054;-80
2021/12/09 04:14:20;;;;;;;89.30;35.92;;;;;;;1.61;100.00;96387.03;4977164;28;20057;-80
2021/12/09 04:16:48;;;;;;;90.50;36.75;;;;;;;1.70;100.00;96393.31;4975081;28;20058;-81
2021/12/09 04:19:15;;;;;;;92.90;35.90;;;;;;;1.71;100.00;96394.91;4979733;28;20058;-81
2021/12/09 04:21:46;;;;;;;91.80;35.25;;;;;;;1.63;100.00;96392.06;4977609;28;20062;-81
2021/12/09 04:24:14;;;;;;;89.43;36.45;;;;;;;1.47;100.00;96401.38;4977239;28;20106;-82
2021/12/09 04:26:47;;;;;;;97.97;37.53;;;;;;;1.38;100.00;96398.56;4975334;28;20054;-80
2021/12/09 04:29:14;;;;;;;96.20;37.20;;;;;;;1.31;100.00;96390.13;4975398;28;20121;-81
2021/12/09 04:31:42;;;;;;;97.65;36.17;;;;;;;1.43;100.00;96397.69;4973420;28;20051;-81
2021/12/09 04:34:10;;;;;;;92.80;35.50;;;;;;;1.44;100.00;96391.28;4977106;28;20057;-81
2021/12/09 04:36:38;;;;;;;93.60;37.58;;;;;;;1.51;100.00;96386.38;4976952;28;20047;-80
2021/12/09 04:39:05;;;;;;;92.05;36.47;;;;;;;1.41;100.00;96402.53;4977122;28;20051;-80
2021/12/09 04:41:32;;;;;;;91.55;36.65;;;;;;;1.49;100.00;96388.56;4975901;28;20051;-82
2021/12/09 04:43:58;;;;;;;86.50;35.63;;;;;;;1.52;100.00;96395.97;4977292;28;20086;-81
2021/12/09 04:46:25;;;;;;;93.88;35.17;;;;;;;1.54;100.00;96401.81;4975309;28;20105;-78
2021/12/09 04:48:52;;;;;;;90.78;35.15;;;;;;;1.55;100.00;96398.84;4976425;28;20058;-80
2021/12/09 04:51:18;;;;;;;101.50;36.95;;;;;;;1.34;100.00;96412.75;4977365;28;20055;-81
2021/12/09 04:53:45;;;;;;;91.00;36.60;;;;;;;1.38;100.00;96398.56;4977495;28;20711;-82
2021/12/09 04:56:11;;;;;;;89.78;34.80;;;;;;;1.70;100.00;96403.19;4976274;28;20089;-80
2021/12/09 04:58:38;;;;;;;101.15;37.67;;;;;;;1.68;100.00;96400.00;4984237;28;20050;-80
2021/12/09 05:01:07;;;;;;;97.88;36.47;;;;;;;1.60;100.00;96398.00;4975594;28;20055;-79
2021/12/09 05:03:34;;;;;;;88.82;34.95;;;;;;;1.62;100.00;96395.84;4974521;28;20127;-81
2021/12/09 05:06:01;;;;;;;103.65;37.90;;;;;;;1.46;100.00;96394.44;4976476;28;20050;-81
2021/12/09 05:08:32;;;;;;;104.03;38.15;;;;;;;1.42;100.00;96380.13;4976709;28;20054;-81
2021/12/09 05:13:34;;;;;;;94.53;36.53;;;;;;;1.53;100.00;96381.56;4986582;28;20101;-81
2021/12/09 05:16:02;;;;;;;93.07;35.90;;;;;;;1.66;100.00;96394.16;4979199;28;20117;-80
2021/12/09 05:18:32;;;;;;;90.57;35.30;;;;;;;1.38;100.00;96393.22;4976646;28;20548;-81
2021/12/09 05:21:01;;;;;;;92.75;36.80;;;;;;;1.33;100.00;96390.63;4974138;28;20055;-81
2021/12/09 05:23:28;;;;;;;98.93;38.17;;;;;;;1.51;100.00;96408.50;4976146;28;20077;-80
2021/12/09 05:25:54;;;;;;;92.82;36.72;;;;;;;1.53;100.00;96405.56;4977186;28;20109;-81
2021/12/09 05:28:30;;;;;;;93.80;36.67;;;;;;;1.53;100.00;96401.00;4976669;28;20051;-81
2021/12/09 05:33:42;;;;;;;;;;;;;;;1.45;100.00;96409.66;4977075;28;20057;-80
2021/12/09 05:36:09;;;;;;;96.32;33.95;;;;;;;1.38;100.00;96411.88;4992328;28;19949;-79
2021/12/09 05:38:36;;;;;;;89.90;36.58;;;;;;;1.40;100.00;96404.38;4976561;28;20054;-81
2021/12/09 05:41:03;;;;;;;95.22;36.28;;;;;;;1.46;100.00;96415.78;4976897;28;20484;-82
2021/12/09 05:43:30;;;;;;;91.38;36.08;;;;;;;1.54;100.00;96405.28;4975651;28;20057;-82
2021/12/09 05:45:57;;;;;;;89.38;35.75;;;;;;;1.61;100.00;96418.25;4977207;28;20070;-80
2021/12/09 05:48:24;;;;;;;92.75;35.13;;;;;;;1.47;100.00;96407.50;4973798;28;20628;-80
2021/12/09 05:50:51;;;;;;;92.90;35.30;;;;;;;1.32;100.00;96405.03;4974507;28;20054;-80
2021/12/09 05:53:18;;;;;;;92.93;36.47;;;;;;;1.46;100.00;96413.91;4977584;28;20059;-81
2021/12/09 05:55:45;;;;;;;97.53;36.67;;;;;;;1.50;100.00;96422.13;4977064;28;20042;-80
2021/12/09 05:58:17;;;;;;;86.43;33.08;;;;;;;1.70;100.00;96435.97;4977386;28;20051;-80
2021/12/09 06:00:49;;;;;;;89.22;35.15;;;;;;;1.69;100.00;96437.06;4980703;28;20060;-80
2021/12/09 06:03:19;;;;;;;92.68;36.25;;;;;;;1.70;100.00;96448.53;4978373;28;20473;-80
2021/12/09 06:05:47;;;;;;;95.07;35.17;;;;;;;1.68;100.00;96437.34;4995945;28;20475;-81
2021/12/09 06:08:13;;;;;;;91.28;35.50;;;;;;;1.69;100.00;96429.06;4979366;28;20346;-81
2021/12/09 06:10:40;;;;;;;96.50;35.92;;;;;;;1.65;100.00;96443.28;4978783;28;20313;-81
2021/12/09 06:13:07;;;;;;;97.30;36.90;;;;;;;1.58;100.00;96438.28;4994829;28;20054;-80
2021/12/09 06:15:34;;;;;;;98.95;36.25;;;;;;;1.53;100.00;96432.22;4981018;28;20047;-81
2021/12/09 06:18:01;;;;;;;110.38;38.03;;;;;;;1.56;100.00;96431.66;4977431;28;20129;-81
2021/12/09 06:20:28;;;;;;;101.65;36.72;;;;;;;1.57;100.00;96446.59;4996336;28;20109;-81
2021/12/09 06:22:55;;;;;;;93.82;35.75;;;;;;;1.61;100.00;96456.38;4977566;28;20061;-81
2021/12/09 06:25:24;;;;;;;103.63;37.08;;;;;;;1.47;100.00;96457.38;4975419;28;20368;-81
2021/12/09 06:27:54;;;;;;;104.75;36.70;;;;;;;1.58;100.00;96464.16;4989262;28;20113;-81
2021/12/09 06:30:22;;;;;;;105.07;36.63;;;;;;;1.56;100.00;96471.66;4991899;28;20064;-79
2021/12/09 06:32:49;;;;;;;107.25;36.17;;;;;;;1.62;100.00;96475.84;4992373;28;20050;-80
2021/12/09 06:35:16;;;;;;;108.47;36.90;;;;;;;1.76;100.00;96480.19;4993822;28;20538;-81
2021/12/09 06:37:45;;;;;;;98.20;35.58;;;;;;;1.80;100.00;96488.41;4977629;28;20061;-81
2021/12/09 06:40:16;;;;;;;96.65;35.33;;;;;;;1.61;100.00;96479.59;4976835;28;20050;-82
2021/12/09 06:42:43;;;;;;;94.50;35.20;;;;;;;1.64;100.00;96493.16;4973979;28;20065;-82
2021/12/09 06:45:12;;;;;;;105.65;37.00;;;;;;;1.70;100.00;96489.31;4999211;28;20054;-81
2021/12/09 06:47:40;;;;;;;107.97;34.17;;;;;;;1.73;100.00;96479.97;4976081;28;20066;-81
2021/12/09 06:50:09;;;;;;;100.13;33.75;;;;;;;1.69;100.00;96477.09;4987935;28;20058;-81
2021/12/09 06:52:39;;;;;;;104.47;34.15;;;;;;;1.68;100.00;96482.69;4987357;28;20051;-81
2021/12/09 06:55:10;;;;;;;102.97;35.75;;;;;;;1.55;100.00;96486.06;4978804;28;20096;-81
2021/12/09 06:57:38;;;;;;;105.25;34.40;;;;;;;1.52;100.00;96476.78;4982483;28;20047;-81
2021/12/09 07:00:08;;;;;;;95.45;31.17;;;;;;;1.35;100.00;96473.75;4982018;28;20050;-81
2021/12/09 07:02:35;;;;;;;92.75;31.40;;;;;;;1.32;100.00;96476.22;4977652;28;20050;-81
2021/12/09 07:05:05;;;;;;;97.20;32.70;;;;;;;1.14;100.00;96481.19;4980487;28;20042;-81
2021/12/09 07:07:32;;;;;;;94.90;31.90;;;;;;;1.19;100.00;96472.34;4996883;28;20046;-82
2021/12/09 07:09:58;;;;;;;99.20;32.35;;;;;;;1.20;100.00;96492.59;4982842;23;20043;-80
2021/12/09 07:12:38;;;;;;;105.10;32.30;;;;;;;1.12;100.00;96480.69;4974767;28;20491;-80
2021/12/09 07:15:12;;;;;;;108.78;33.05;;;;;;;1.29;100.00;96500.78;4992407;28;20050;-80
2021/12/09 07:17:39;;;;;;;106.50;31.33;;;;;;;1.22;100.00;96491.22;4970694;28;20537;-80
2021/12/09 07:20:18;;;;;;;105.88;32.50;;;;;;;1.10;100.00;96482.03;4999787;28;20054;-79
2021/12/09 07:22:48;;;;;;;109.60;31.13;;;;;;;1.17;100.00;96499.28;4992216;28;20054;-80
2021/12/09 07:25:19;;;;;;;101.78;31.90;;;;;;;1.19;100.00;96488.31;4994027;28;20119;-82
2021/12/09 07:27:50;;;;;;;106.43;32.03;;;;;;;1.24;100.00;96483.75;4976835;28;20054;-82
2021/12/09 07:30:19;;;;;;;111.20;32.90;;;;;;;1.28;100.00;96478.66;4994590;28;20557;-82
2021/12/09 07:32:48;;;;;;;109.18;31.98;;;;;;;1.19;100.00;96483.78;4974390;28;20054;-82
2021/12/09 07:35:24;;;;;;;112.60;32.42;;;;;;;1.17;100.00;96469.16;4978765;28;20486;-81
2021/12/09 07:37:54;;;;;;;119.63;33.03;;;;;;;1.19;100.00;96472.34;4971616;28;20123;-84
2021/12/09 07:40:37;;;;;;;116.07;34.13;;;;;;;1.03;100.00;96470.94;4992726;28;20499;-81
2021/12/09 07:43:57;;;;;;;107.70;33.00;;;;;;;1.14;100.00;96491.84;4991285;28;20046;-81
2021/12/09 07:46:49;;;;;;;;;;;;;;;;;;;;;
2021/12/09 07:49:33;;;;;;;;;;;;;;;1.18;100.00;96526.72;4995813;28;20137;-81
2021/12/09 07:53:24;;;;;;;;;;;;;;;;;;;;;
2021/12/09 07:56:09;;;;;;;121.10;32.38;;;;;;;0.94;100.00;96505.38;4995167;28;20046;-78
2021/12/09 07:58:39;;;;;;;114.50;31.73;;;;;;;0.98;100.00;96503.72;5006750;23;20047;-81
2021/12/09 08:01:08;;;;;;;120.38;31.92;;;;;;;0.98;100.00;96508.28;4964344;28;20515;-80
2021/12/09 08:03:36;;;;;;;121.28;31.30;;;;;;;0.89;100.00;96507.28;4974361;28;20046;-81
2021/12/09 08:06:05;;;;;;;126.93;31.45;;;;;;;0.96;100.00;96508.56;4972170;28;20089;-82
2021/12/09 08:08:31;;;;;;;130.52;32.83;;;;;;;0.98;100.00;96505.63;4965363;28;20146;-79
2021/12/09 08:11:01;;;;;;;132.38;33.30;;;;;;;0.90;100.00;96485.72;4975135;28;20058;-80
2021/12/09 08:13:27;;;;;;;125.68;31.45;;;;;;;1.14;100.00;96502.50;4956623;28;20059;-80
2021/12/09 08:15:56;;;;;;;135.30;33.75;;;;;;;1.16;100.00;96502.25;4974235;28;20420;-80
2021/12/09 08:18:33;;;;;;;133.95;34.92;;;;;;;1.15;100.00;96497.97;4975222;28;20113;-86
2021/12/09 08:22:08;;;;;;;150.48;33.75;;;;;;;0.98;100.00;96485.06;4970732;28;20046;-84
2021/12/09 08:25:43;;;;;;;145.00;33.90;;;;;;;1.19;100.00;96506.97;4879240;29;20579;-84
2021/12/09 08:28:35;;;;;;;146.07;32.47;;;;;;;1.03;100.00;96479.69;4883702;29;20052;-82
2021/12/09 08:31:08;;;;;;;143.93;33.85;;;;;;;1.09;100.00;96489.25;4934178;29;20428;-80
2021/12/09 08:38:32;;;;;;;157.70;35.78;;;;;;;1.11;100.00;96512.97;4920892;23;20055;-80
2021/12/09 08:41:00;;;;;;;145.00;34.35;;;;;;;1.31;100.00;96528.72;4941745;29;20054;-80
2021/12/09 08:43:26;;;;;;;149.18;36.13;;;;;;;1.34;100.00;96522.03;4942471;29;20074;-79
2021/12/09 08:45:53;;;;;;;144.35;35.63;;;;;;;1.47;100.00;96510.69;4944511;29;20415;-78
2021/12/09 08:48:22;;;;;;;133.85;32.03;;;;;;;1.43;100.00;96529.13;4949012;29;20074;-81
2021/12/09 08:50:49;;;;;;;150.27;33.20;;;;;;;1.39;100.00;96533.44;4945630;29;20059;-80
2021/12/09 08:53:18;;;;;;;149.20;34.13;;;;;;;1.36;100.00;96552.66;4948840;29;20051;-80
2021/12/09 08:55:45;;;;;;;187.85;35.60;;;;;;;1.33;100.00;96552.44;4964793;28;20492;-81
2021/12/09 08:58:28;;;;;;;144.55;33.55;;;;;;;1.26;100.00;96548.22;4964241;28;20051;-80
2021/12/09 09:01:01;;;;;;;149.25;34.28;;;;;;;1.25;100.00;96551.97;4965461;28;20047;-80
2021/12/09 09:03:38;;;;;;;136.32;33.50;;;;;;;1.18;100.00;96556.84;4965672;28;20111;-80
2021/12/09 09:06:19;;;;;;;139.80;33.85;;;;;;;1.41;100.00;96552.63;4949373;29;20043;-80
2021/12/09 09:09:02;;;;;;;118.47;31.67;;;;;;;1.37;100.00;96562.25;4968379;28;20043;-80
2021/12/09 09:11:42;;;;;;;133.63;32.65;;;;;;;1.44;100.00;96556.59;4968130;28;20077;-80
2021/12/09 09:14:23;;;;;;;135.32;33.47;;;;;;;1.47;100.00;96567.47;4958686;29;20055;-81
2021/12/09 09:17:07;;;;;;;151.43;35.35;;;;;;;1.42;100.00;96585.41;4965366;28;20114;-81
2021/12/09 09:19:47;;;;;;;130.02;33.20;;;;;;;1.32;100.00;96596.19;4954119;28;20079;-79
2021/12/09 09:22:15;;;;;;;122.22;32.83;;;;;;;1.39;100.00;96586.78;4964840;28;20051;-80
2021/12/09 09:24:44;;;;;;;141.02;32.80;;;;;;;1.42;100.00;96593.41;4965998;28;20062;-81
2021/12/09 09:27:26;;;;;;;138.93;32.95;;;;;;;1.55;100.00;96596.19;4950172;28;20109;-81
2021/12/09 09:29:56;;;;;;;131.00;32.80;;;;;;;1.49;100.00;96602.66;4951265;29;20055;-80
2021/12/09 09:32:23;;;;;;;120.03;30.00;;;;;;;1.40;100.00;96584.88;4967581;28;20051;-79
2021/12/09 09:35:05;;;;;;;130.52;31.40;;;;;;;1.34;100.00;96575.34;4950546;29;20043;-81
2021/12/09 09:37:46;;;;;;;126.95;32.03;;;;;;;1.49;100.00;96576.00;4949543;28;20377;-80
2021/12/09 09:40:38;;;;;;;116.32;30.92;;;;;;;1.54;100.00;96573.28;4963890;28;20047;-81
2021/12/09 09:46:40;;;;;;;89.18;26.67;;;;;;;1.46;100.00;96589.88;4964028;28;20052;-80
2021/12/09 09:49:21;;;;;;;84.32;26.05;;;;;;;1.54;100.00;96588.47;4949443;29;20047;-80
2021/12/09 09:52:02;;;;;;;86.55;25.42;;;;;;;1.47;100.00;96588.78;4965442;29;20180;-80
2021/12/09 09:54:35;;;;;;;90.32;27.38;;;;;;;1.53;100.00;96585.00;4965712;28;20132;-81
2021/12/09 09:57:04;;;;;;;92.65;28.00;;;;;;;1.47;100.00;96572.03;4964504;28;20050;-81
2021/12/09 09:59:35;;;;;;;100.50;28.45;;;;;;;1.40;100.00;96552.88;4965223;28;20075;-81
2021/12/09 10:02:18;;;;;;;104.80;30.58;;;;;;;1.46;100.00;96551.75;4949272;29;20079;-81
2021/12/09 10:05:04;;;;;;;115.05;30.25;;;;;;;1.58;100.00;96546.81;4949989;29;20118;-80
2021/12/09 10:07:35;;;;;;;100.85;29.80;;;;;;;1.71;100.00;96538.13;4953968;28;20089;-80
2021/12/09 10:10:07;;;;;;;99.85;29.00;;;;;;;1.50;100.00;96536.78;4966766;28;20050;-82
2021/12/09 10:12:55;;;;;;;87.18;26.58;;;;;;;1.59;100.00;96546.56;4959643;28;20066;-79
2021/12/09 10:15:46;;;;;;;79.70;24.90;;;;;;;1.52;100.00;96542.63;4956805;28;20049;-81
2021/12/09 10:21:45;;;;;;;81.72;25.70;;;;;;;1.64;100.00;96527.03;4964919;28;20608;-80
2021/12/09 10:24:58;;;;;;;90.68;25.38;;;;;;;1.66;100.00;96535.53;4951833;28;20220;-82
2021/12/09 10:27:34;;;;;;;81.50;24.50;;;;;;;1.79;100.00;96518.84;4953424;29;20054;-81
2021/12/09 10:30:12;;;;;;;78.05;24.58;;;;;;;1.85;100.00;96518.50;4940893;29;20047;-81
2021/12/09 10:32:41;;;;;;;76.03;24.85;;;;;;;1.91;100.00;96526.44;4960893;28;20071;-81
2021/12/09 10:35:16;;;;;;;67.25;22.58;;;;;;;1.89;100.00;96524.03;4939913;29;20043;-81
2021/12/09 10:37:46;;;;;;;71.35;23.92;;;;;;;1.91;100.00;96515.75;4940263;29;20051;-81
2021/12/09 10:40:26;;;;;;;67.78;24.02;;;;;;;1.73;100.00;96512.00;4953496;28;20119;-80
2021/12/09 10:42:58;;;;;;;71.80;24.88;;;;;;;1.84;100.00;96518.75;4956217;28;20058;-81
2021/12/09 10:45:31;;;;;;;77.93;25.45;;;;;;;2.01;100.00;96516.44;4946688;28;20474;-81
2021/12/09 10:48:32;;;;;;;70.75;23.95;;;;;;;1.93;100.00;96503.72;4958981;28;20046;-81
2021/12/09 10:53:46;;;;;;;58.53;22.65;;;;;;;2.02;100.00;96515.31;4958233;28;20043;-81
2021/12/09 10:56:25;;;;;;;62.57;23.07;;;;;;;1.87;100.00;96512.88;4938585;28;20439;-82
2021/12/09 10:58:51;;;;;;;56.67;20.90;;;;;;;2.00;100.00;96543.38;4939066;29;20306;-79
2021/12/09 11:01:24;;;;;;;48.97;20.10;;;;;;;1.84;100.00;96537.44;4957905;28;20058;-81
2021/12/09 11:04:01;;;;;;;48.60;19.48;;;;;;;1.75;100.00;96525.84;4942160;29;20468;-80
2021/12/09 11:06:34;;;;;;;46.40;17.92;;;;;;;1.69;100.00;96521.63;4959286;28;20051;-82
2021/12/09 11:09:07;;;;;;;46.38;18.55;;;;;;;1.77;100.00;96529.00;4958614;29;20515;-81
2021/12/09 11:11:47;;;;;;;51.83;18.63;;;;;;;1.74;100.00;96519.69;4947480;29;20055;-81
2021/12/09 11:14:21;;;;;;;46.17;18.20;;;;;;;1.72;100.00;96510.41;4964735;28;20070;-81
2021/12/09 11:17:05;;;;;;;44.72;17.88;;;;;;;1.72;100.00;96495.19;4961006;28;20038;-82
2021/12/09 11:22:14;;;;;;;47.65;18.23;;;;;;;1.68;100.00;96520.81;4965065;28;20051;-82
2021/12/09 11:24:59;;;;;;;45.45;17.67;;;;;;;1.64;100.00;96508.34;4961381;28;20050;-82
2021/12/09 11:27:41;;;;;;;35.58;14.88;;;;;;;1.59;100.00;96508.41;4950068;28;20106;-81
2021/12/09 11:30:15;;;;;;;40.42;17.98;;;;;;;1.63;100.00;96517.44;4941934;29;20047;-81
2021/12/09 11:32:52;;;;;;;44.20;17.77;;;;;;;1.51;100.00;96504.50;4958291;28;20464;-82
2021/12/09 11:35:27;;;;;;;46.38;18.55;;;;;;;1.63;100.00;96528.88;4964679;28;20082;-82
2021/12/09 11:40:45;;;;;;;49.40;19.65;;;;;;;1.71;100.00;96522.13;4957911;28;20079;-81
2021/12/09 11:43:23;;;;;;;51.47;21.08;;;;;;;1.58;100.00;96528.16;4958082;28;20415;-82
2021/12/09 11:46:03;;;;;;;;;;;;;;;1.57;100.00;96535.38;4939838;29;20131;-81
2021/12/09 11:48:32;;;;;;;53.22;22.00;;;;;;;1.38;100.00;96509.72;4939209;29;20391;-81
2021/12/09 11:51:07;;;;;;;51.85;22.35;;;;;;;1.34;100.00;96508.72;4957911;28;20055;-82
2021/12/09 11:53:54;;;;;;;54.20;22.52;;;;;;;1.24;100.00;96529.06;4955461;29;20071;-82
2021/12/09 12:11:26;;;;;;;51.38;21.23;;;;;;;1.48;100.00;96554.94;4959642;29;20055;-82
2021/12/09 12:14:02;;;;;;;51.22;22.50;;;;;;;1.42;100.00;96535.53;4978329;28;20055;-83
2021/12/09 12:19:32;;;;;;;52.22;21.17;;;;;;;1.43;100.00;96547.78;4960794;28;20138;-83
2021/12/09 12:22:44;;;;;;;55.28;22.08;;;;;;;1.21;100.00;96534.16;4965512;28;20106;-82
2021/12/09 12:33:59;;;;;;;51.10;23.17;;;;;;;1.51;100.00;96551.69;4964983;28;20117;-82
2021/12/09 12:40:14;;;;;;;58.38;24.30;;;;;;;1.55;100.00;96571.41;4981913;28;20043;-83